KEST/EST METAR and TAF weather

Enter ICAO airport designator
Station Type Date Time Source
KEST METAR 2021/08/01 16:52 UTC NOAA

KEST 011652Z AUTO 35013KT 6SM HZ CLR 23/15 A3022 RMK AO2 SLP229 T02280150


Station Type Date Time Source
KEST Decoded METAR 2021/08/01 16:52 UTC NOAA

ESTHERVILLE MUNICIPAL AIRPORT , IA, United States (KEST) 43-24N 94-45W 401M
Aug 01, 2021 - 12:52 PM EDT / 2021.08.01 1652 UTC
Wind: from the N (350 degrees) at 15 MPH (13 KT):0
Visibility: 6 mile(s):0
Sky conditions: clear
Weather: haze
Temperature: 73.0 F (22.8 C)
Dew Point: 59.0 F (15.0 C)
Relative Humidity: 61%
Pressure (altimeter): 30.22 in. Hg (1023 hPa)
ob: KEST 011652Z AUTO 35013KT 6SM HZ CLR 23/15 A3022 RMK AO2 SLP229 T02280150
cycle: 17

Station Type Date Time Source
KEST TAF UTC NOAA

Error!

Example: see airport list